• Join FlightAware (Why Join?)
  • Login
  • US Flag 
02:17PM EDT


 

Airport Tracker/Info


-or-


 

Live Flight TrackerFlight Track Log ✈ CPT7717 ✈ 09-May-2013 ✈ PHMK / MKK - PHNL

Flight Track Log - Related Links

Times and Time Zones

All times are in EDT time to prevent confusion due to time zone crossing. See the CPT7717 flight status page for this flight to view local times or setup timezone preferences in your user account.

Time Position Orientation Groundspeed Altitude Reporting Facility
EDT Latitude Longitude Course Direction KTS MPH feet Rate Location/Type
07:40PM 21.1667 -157.0833 242° Southwest 110 127 2,600  Level Honolulu Center
07:41PM 21.1500 -157.1167 242° Southwest 120 138 3,600 660 Climbing Honolulu Center
07:42PM 21.1333 -157.1500 242° Southwest 130 150 4,000 180 Climbing Honolulu Center
07:43PM 21.1333 -157.1833 270° West 130 150 4,000  Level Honolulu Center
07:44PM 21.1167 -157.2333 250° West 150 173 4,000  Level Honolulu Center
07:45PM 21.1167 -157.2833 270° West 160 184 4,000  Level Honolulu Center
07:46PM 21.1167 -157.3167 270° West 130 150 4,000  Level Honolulu Center
07:47PM 21.1333 -157.3667 290° West 140 161 4,100  Climbing Honolulu Center
07:48PM 21.1500 -157.4000 298° West 140 161 4,000 -240 Descending Honolulu Center
07:49PM 21.1667 -157.4333 298° West 150 173 3,700 -420 Descending Honolulu Center
07:50PM 21.1833 -157.4833 290° West 150 173 3,200 -480 Descending Honolulu Center
07:51PM 21.1833 -157.5333 270° West 150 173 2,800 -420 Descending Honolulu Center
07:52PM 21.2000 -157.5667 298° West 150 173 2,400 -360 Descending Honolulu Center
07:53PM 21.2167 -157.6167 290° West 160 184 2,100 -180 Descending Honolulu Center
07:54PM 21.2333 -157.6500 298° West 140 161 2,100  Level Honolulu Center
07:55PM 21.2333 -157.7000 270° West 140 161 2,100  Level Honolulu Center
07:56PM 21.2500 -157.7333 298° West 150 173 2,100  Level Honolulu Center
07:57PM 21.2667 -157.7833 290° West 140 161 2,100  Level Honolulu Center
07:58PM 21.2833 -157.8167 298° West 160 184 2,100 -360 Level Honolulu Center
07:59PM 21.3167 -157.8500 317° Northwest 130 150 1,400 -840 Descending Honolulu Center
08:00PM 21.3333 -157.8833 298° West 110 127 500 -900 Descending Honolulu Center